createdAt,value
2023-04-27T00:01:51.712Z,8.15
2023-04-27T00:04:41.778Z,8.09
2023-04-27T00:07:30.363Z,8.07
2023-04-27T00:10:18.691Z,8.04
2023-04-27T00:13:07.236Z,8.01
2023-04-27T00:15:55.750Z,7.98
2023-04-27T00:18:44.188Z,7.99
2023-04-27T00:21:33.927Z,7.98
2023-04-27T00:24:22.318Z,7.97
2023-04-27T00:27:13.432Z,8.00
2023-04-27T00:30:01.826Z,7.99
2023-04-27T00:32:50.339Z,8.00
2023-04-27T00:35:38.865Z,7.99
2023-04-27T00:38:28.696Z,8.02
2023-04-27T00:41:17.094Z,8.02
2023-04-27T00:44:05.612Z,8.01
2023-04-27T00:46:54.572Z,8.04
2023-04-27T00:49:44.618Z,8.03
2023-04-27T00:52:33.033Z,8.04
2023-04-27T00:55:23.025Z,8.06
2023-04-27T00:58:11.898Z,8.09
2023-04-27T01:01:00.479Z,8.06
2023-04-27T01:03:49.160Z,8.07
2023-04-27T01:06:37.646Z,8.05
2023-04-27T01:09:26.053Z,8.03
2023-04-27T01:12:15.889Z,8.01
2023-04-27T01:15:04.749Z,7.93
2023-04-27T01:17:59.155Z,7.97
2023-04-27T01:20:49.832Z,7.99
2023-04-27T01:23:39.613Z,8.01
2023-04-27T01:26:28.072Z,7.98
2023-04-27T01:29:16.493Z,7.98
2023-04-27T01:32:05.728Z,8.02
2023-04-27T01:34:54.147Z,8.00
2023-04-27T01:37:42.608Z,8.03
2023-04-27T01:40:33.087Z,7.98
2023-04-27T01:43:21.452Z,7.98
2023-04-27T01:46:11.525Z,7.98
2023-04-27T01:48:59.901Z,7.95
2023-04-27T01:51:49.727Z,7.95
2023-04-27T01:54:38.095Z,7.95
2023-04-27T01:57:29.320Z,7.94
2023-04-27T02:00:18.629Z,7.92
2023-04-27T02:03:10.060Z,7.95
2023-04-27T02:05:58.788Z,7.95
2023-04-27T02:08:47.127Z,7.91
2023-04-27T02:11:35.537Z,7.89
2023-04-27T02:14:25.260Z,7.93
2023-04-27T02:17:13.738Z,7.89
2023-04-27T02:20:02.456Z,7.89
2023-04-27T02:22:50.868Z,7.91
2023-04-27T02:25:39.270Z,7.92
2023-04-27T02:28:27.750Z,7.93
2023-04-27T02:31:17.995Z,7.90
2023-04-27T02:34:07.771Z,7.90
2023-04-27T02:36:56.371Z,7.89
2023-04-27T02:39:44.752Z,7.91
2023-04-27T02:42:33.138Z,7.91
2023-04-27T02:45:21.465Z,7.86
2023-04-27T02:48:11.215Z,7.85
2023-04-27T02:50:59.794Z,7.85
2023-04-27T02:53:48.195Z,7.86
2023-04-27T02:56:36.629Z,7.84
2023-04-27T02:59:25.106Z,7.80
2023-04-27T03:02:13.670Z,7.78
2023-04-27T03:05:04.826Z,7.76
2023-04-27T03:07:53.167Z,7.74
2023-04-27T03:10:41.643Z,7.67
2023-04-27T03:13:31.516Z,7.62
2023-04-27T03:16:21.099Z,7.61
2023-04-27T03:19:09.518Z,7.60
2023-04-27T03:21:59.219Z,7.60
2023-04-27T03:24:47.578Z,7.56
2023-04-27T03:27:37.636Z,7.56
2023-04-27T03:30:26.002Z,7.49
2023-04-27T03:33:14.437Z,7.48
2023-04-27T03:36:04.426Z,7.51
2023-04-27T03:38:54.148Z,7.50
2023-04-27T03:41:42.486Z,7.51
2023-04-27T03:44:33.553Z,7.46
2023-04-27T03:47:22.020Z,7.37
2023-04-27T03:50:11.413Z,7.34
2023-04-27T03:52:59.772Z,7.36
2023-04-27T03:55:49.636Z,7.35
2023-04-27T03:58:38.246Z,7.33
2023-04-27T04:01:36.421Z,7.30
2023-04-27T04:04:24.932Z,7.27
2023-04-27T04:07:13.568Z,7.23
2023-04-27T04:10:02.032Z,7.21
2023-04-27T04:12:51.900Z,7.18
2023-04-27T04:15:40.377Z,7.19
2023-04-27T04:18:29.281Z,7.20
2023-04-27T04:21:17.719Z,7.14
2023-04-27T04:24:06.486Z,7.14
2023-04-27T04:26:55.075Z,7.06
2023-04-27T04:29:44.823Z,7.03
2023-04-27T04:32:33.807Z,7.06
2023-04-27T04:35:22.196Z,7.01
2023-04-27T04:38:11.100Z,6.97
2023-04-27T04:41:01.214Z,7.00
2023-04-27T04:43:52.837Z,6.96
2023-04-27T04:46:42.690Z,6.95
2023-04-27T04:49:31.059Z,6.97
2023-04-27T04:52:19.424Z,6.96
2023-04-27T04:55:08.449Z,7.01
2023-04-27T04:57:56.837Z,7.03
2023-04-27T05:00:45.853Z,7.03
2023-04-27T05:03:35.655Z,7.07
2023-04-27T05:06:24.119Z,7.07
2023-04-27T05:09:14.002Z,7.09
2023-04-27T05:12:02.973Z,7.08
2023-04-27T05:14:52.502Z,7.09
2023-04-27T05:17:40.959Z,7.07
2023-04-27T05:20:30.727Z,7.12
2023-04-27T05:23:19.093Z,7.10
2023-04-27T05:26:12.828Z,7.13
2023-04-27T05:29:01.335Z,7.17
2023-04-27T05:31:49.805Z,7.17
2023-04-27T05:34:38.248Z,7.21
2023-04-27T05:37:27.934Z,7.27
2023-04-27T05:40:16.835Z,7.37
2023-04-27T05:43:05.709Z,7.39
2023-04-27T05:45:54.957Z,7.46
2023-04-27T05:48:43.394Z,7.53
2023-04-27T05:51:32.049Z,7.57
2023-04-27T05:54:21.924Z,7.64
2023-04-27T05:57:10.256Z,7.67
2023-04-27T05:59:58.758Z,7.71
2023-04-27T06:02:47.186Z,7.75
2023-04-27T06:05:35.904Z,7.84
2023-04-27T06:08:24.504Z,7.91
2023-04-27T06:11:14.226Z,7.95
2023-04-27T06:14:02.622Z,8.00
2023-04-27T06:16:51.180Z,7.97
2023-04-27T06:19:39.583Z,8.00
2023-04-27T06:22:28.250Z,8.03
2023-04-27T06:25:16.593Z,8.10
2023-04-27T06:28:06.622Z,8.24
2023-04-27T06:30:55.184Z,8.33
2023-04-27T06:33:43.575Z,8.40
2023-04-27T06:36:32.126Z,8.49
2023-04-27T06:39:20.458Z,8.54
2023-04-27T06:42:08.894Z,8.62
2023-04-27T06:44:58.752Z,8.70
2023-04-27T06:47:47.158Z,8.77
2023-04-27T06:50:35.536Z,8.84
2023-04-27T06:53:24.017Z,8.82
2023-04-27T06:56:13.138Z,8.95
2023-04-27T06:59:01.489Z,8.79
2023-04-27T07:01:51.881Z,8.87
2023-04-27T07:04:40.482Z,8.97
2023-04-27T07:07:29.028Z,9.13
2023-04-27T07:10:17.473Z,9.22
2023-04-27T07:13:08.815Z,9.32
2023-04-27T07:15:58.829Z,9.44
2023-04-27T07:18:48.564Z,9.55
2023-04-27T07:21:37.041Z,9.55
2023-04-27T07:24:25.559Z,9.71
2023-04-27T07:27:15.066Z,9.85
2023-04-27T07:30:03.448Z,9.82
2023-04-27T07:32:54.569Z,9.98
2023-04-27T07:35:44.502Z,9.77
2023-04-27T07:38:32.834Z,10.03
2023-04-27T07:41:21.332Z,10.22
2023-04-27T07:44:09.671Z,10.35
2023-04-27T07:46:58.596Z,10.31
2023-04-27T07:49:47.231Z,10.29
2023-04-27T07:52:37.303Z,10.30
2023-04-27T07:55:26.536Z,10.19
2023-04-27T07:58:14.944Z,10.46
2023-04-27T08:01:03.330Z,10.63
2023-04-27T08:03:51.961Z,10.79
2023-04-27T08:06:41.181Z,10.90
2023-04-27T08:09:32.186Z,10.98
2023-04-27T08:12:20.815Z,11.10
2023-04-27T08:15:10.638Z,11.21
2023-04-27T08:17:59.412Z,11.26
2023-04-27T08:20:47.762Z,11.38
2023-04-27T08:23:37.171Z,11.48
2023-04-27T08:26:27.185Z,11.54
2023-04-27T08:29:27.100Z,11.31
2023-04-27T08:32:17.153Z,11.51
2023-04-27T08:35:06.249Z,11.69
2023-04-27T08:37:55.420Z,11.83
2023-04-27T08:40:44.777Z,11.88
2023-04-27T08:43:37.926Z,11.99
2023-04-27T08:46:27.656Z,12.01
2023-04-27T08:49:17.674Z,12.08
2023-04-27T08:52:12.068Z,12.06
2023-04-27T08:55:01.724Z,12.00
2023-04-27T08:57:57.806Z,12.02
2023-04-27T09:00:50.731Z,12.22
2023-04-27T09:03:41.355Z,12.38
2023-04-27T09:06:33.492Z,12.53
2023-04-27T09:09:25.938Z,12.63
2023-04-27T09:12:18.878Z,12.73
2023-04-27T09:15:08.691Z,12.78
2023-04-27T09:17:58.997Z,12.75
2023-04-27T09:20:48.032Z,12.99
2023-04-27T09:23:40.760Z,13.14
2023-04-27T09:26:31.496Z,13.20
2023-04-27T09:29:20.121Z,13.26
2023-04-27T09:32:18.018Z,13.32
2023-04-27T09:35:18.412Z,13.49
2023-04-27T09:38:06.829Z,13.23
2023-04-27T09:40:56.604Z,13.13
2023-04-27T09:43:45.793Z,13.22
2023-04-27T09:46:34.687Z,13.30
2023-04-27T09:49:23.598Z,13.48
2023-04-27T09:52:13.376Z,13.58
2023-04-27T09:55:03.389Z,13.63
2023-04-27T09:57:56.962Z,13.40
2023-04-27T10:00:53.248Z,13.41
2023-04-27T10:03:52.735Z,13.43
2023-04-27T10:06:58.030Z,13.64
2023-04-27T10:09:49.717Z,13.49
2023-04-27T10:12:38.111Z,13.44
2023-04-27T10:15:27.986Z,13.52
2023-04-27T10:18:27.158Z,13.57
2023-04-27T10:21:16.479Z,13.47
2023-04-27T10:24:09.537Z,13.55
2023-04-27T10:27:05.640Z,13.54
2023-04-27T10:29:54.250Z,13.43
2023-04-27T10:32:51.937Z,13.51
2023-04-27T10:35:42.045Z,13.68
2023-04-27T10:38:32.676Z,13.70
2023-04-27T10:41:21.116Z,13.72
2023-04-27T10:44:18.088Z,13.58
2023-04-27T10:47:19.867Z,13.59
2023-04-27T10:50:11.293Z,13.72
2023-04-27T10:53:02.566Z,13.76
2023-04-27T10:55:57.595Z,13.93
2023-04-27T10:58:49.352Z,14.13
2023-04-27T11:01:39.410Z,14.25
2023-04-27T11:04:38.392Z,14.38
2023-04-27T11:07:29.060Z,14.47
2023-04-27T11:10:18.561Z,14.40
2023-04-27T11:13:12.329Z,14.39
2023-04-27T11:16:01.337Z,14.26
2023-04-27T11:18:51.266Z,14.42
2023-04-27T11:21:39.827Z,14.35
2023-04-27T11:24:28.213Z,14.22
2023-04-27T11:27:16.622Z,14.32
2023-04-27T11:30:07.500Z,14.39
2023-04-27T11:32:55.963Z,14.36
2023-04-27T11:35:46.157Z,14.21
2023-04-27T11:38:36.135Z,14.32
2023-04-27T11:41:24.631Z,14.59
2023-04-27T11:44:13.823Z,14.82
2023-04-27T11:47:02.720Z,14.79
2023-04-27T11:49:51.716Z,15.00
2023-04-27T11:52:41.794Z,15.27
2023-04-27T11:55:30.690Z,15.24
2023-04-27T11:58:19.566Z,15.47
2023-04-27T12:01:10.157Z,15.41
2023-04-27T12:04:01.531Z,15.23
2023-04-27T12:06:51.589Z,15.31
2023-04-27T12:09:42.072Z,15.63
2023-04-27T12:12:31.354Z,15.43
2023-04-27T12:15:19.694Z,15.53
2023-04-27T12:18:08.876Z,15.55
2023-04-27T12:20:59.007Z,15.48
2023-04-27T12:23:51.696Z,15.41
2023-04-27T12:26:41.725Z,15.34
2023-04-27T12:29:32.093Z,15.77
2023-04-27T12:32:20.559Z,15.94
2023-04-27T12:35:10.084Z,15.96
2023-04-27T12:37:58.684Z,15.80
2023-04-27T12:40:47.080Z,15.95
2023-04-27T12:43:38.282Z,15.86
2023-04-27T12:46:26.813Z,15.71
2023-04-27T12:49:15.368Z,15.60
2023-04-27T12:52:03.746Z,15.73
2023-04-27T12:54:57.659Z,15.88
2023-04-27T12:57:46.276Z,15.92
2023-04-27T13:00:36.070Z,15.78
2023-04-27T13:03:24.640Z,15.84
2023-04-27T13:06:13.204Z,15.79
2023-04-27T13:09:02.518Z,15.69
2023-04-27T13:11:52.756Z,15.81
2023-04-27T13:14:42.446Z,15.91
2023-04-27T13:17:32.148Z,16.09
2023-04-27T13:20:20.527Z,16.01
2023-04-27T13:23:08.914Z,16.17
2023-04-27T13:25:57.255Z,16.39
2023-04-27T13:28:46.174Z,16.42
2023-04-27T13:31:34.654Z,16.09
2023-04-27T13:34:24.543Z,16.04
2023-04-27T13:37:12.959Z,16.01
2023-04-27T13:40:01.344Z,16.03
2023-04-27T13:42:49.839Z,15.83
2023-04-27T13:45:39.695Z,16.16
2023-04-27T13:48:28.434Z,16.37
2023-04-27T13:51:18.178Z,16.36
2023-04-27T13:54:06.618Z,16.56
2023-04-27T13:56:55.002Z,16.58
2023-04-27T13:59:43.324Z,16.70
2023-04-27T14:02:32.165Z,16.70
2023-04-27T14:05:20.534Z,16.81
2023-04-27T14:08:10.357Z,16.95
2023-04-27T14:10:59.888Z,16.97
2023-04-27T14:13:48.502Z,17.00
2023-04-27T14:16:36.942Z,17.14
2023-04-27T14:19:25.458Z,17.06
2023-04-27T14:22:13.842Z,17.11
2023-04-27T14:25:03.658Z,17.14
2023-04-27T14:27:52.059Z,17.29
2023-04-27T14:30:40.591Z,16.99
2023-04-27T14:33:29.055Z,17.26
2023-04-27T14:36:18.245Z,17.58
2023-04-27T14:39:07.249Z,17.67
2023-04-27T14:41:57.282Z,17.35
2023-04-27T14:44:47.168Z,17.32
2023-04-27T14:47:36.499Z,17.61
2023-04-27T14:50:25.164Z,17.49
2023-04-27T14:53:13.533Z,17.84
2023-04-27T14:56:01.918Z,17.97
2023-04-27T14:58:51.678Z,18.16
2023-04-27T15:01:40.452Z,18.18
2023-04-27T15:04:28.996Z,18.23
2023-04-27T15:07:17.397Z,18.20
2023-04-27T15:10:07.013Z,18.10
2023-04-27T15:12:55.490Z,18.31
2023-04-27T15:15:46.107Z,18.25
2023-04-27T15:18:35.394Z,18.17
2023-04-27T15:21:23.874Z,17.89
2023-04-27T15:24:12.208Z,17.81
2023-04-27T15:27:00.546Z,17.97
2023-04-27T15:29:49.189Z,17.81
2023-04-27T15:32:39.168Z,17.83
2023-04-27T15:35:27.584Z,18.23
2023-04-27T15:38:17.867Z,18.18
2023-04-27T15:41:06.512Z,18.26
2023-04-27T15:43:54.996Z,18.30
2023-04-27T15:46:43.364Z,18.33
2023-04-27T15:49:39.907Z,18.20
2023-04-27T15:52:34.847Z,18.24
2023-04-27T15:55:23.546Z,18.18
2023-04-27T15:58:11.945Z,18.02
2023-04-27T16:01:00.653Z,18.05
2023-04-27T16:03:49.198Z,17.97
2023-04-27T16:06:39.292Z,17.74
2023-04-27T16:09:27.720Z,17.84
2023-04-27T16:12:16.542Z,17.83
2023-04-27T16:15:06.406Z,17.81
2023-04-27T16:17:55.837Z,17.87
2023-04-27T16:20:44.443Z,17.83
2023-04-27T16:23:34.171Z,17.68
2023-04-27T16:26:22.613Z,17.55
2023-04-27T16:29:11.530Z,16.95
2023-04-27T16:32:00.356Z,17.13
2023-04-27T16:34:48.909Z,17.03
2023-04-27T16:37:37.295Z,17.08
2023-04-27T16:40:27.064Z,17.03
2023-04-27T16:43:15.629Z,16.90
2023-04-27T16:46:03.981Z,16.76
2023-04-27T16:48:52.420Z,16.94
2023-04-27T16:51:40.904Z,16.80
2023-04-27T16:54:29.248Z,16.71
2023-04-27T16:57:20.076Z,16.73
2023-04-27T17:00:10.728Z,16.55
2023-04-27T17:02:59.156Z,16.52
2023-04-27T17:05:47.805Z,16.52
2023-04-27T17:08:36.144Z,16.27
2023-04-27T17:11:24.676Z,15.95
2023-04-27T17:14:14.892Z,15.81
2023-04-27T17:17:03.243Z,16.06
2023-04-27T17:19:51.587Z,16.21
2023-04-27T17:22:39.995Z,16.19
2023-04-27T17:25:28.438Z,16.05
2023-04-27T17:28:16.825Z,15.80
2023-04-27T17:31:07.015Z,15.84
2023-04-27T17:33:55.433Z,15.90
2023-04-27T17:36:44.033Z,15.56
2023-04-27T17:39:32.449Z,15.32
2023-04-27T17:42:21.173Z,15.44
2023-04-27T17:45:10.777Z,15.70
2023-04-27T17:48:00.679Z,15.79
2023-04-27T17:50:49.001Z,15.85
2023-04-27T17:53:37.329Z,15.78
2023-04-27T17:56:25.650Z,15.63
2023-04-27T17:59:14.188Z,15.52
2023-04-27T18:02:03.106Z,15.26
2023-04-27T18:04:52.912Z,15.15
2023-04-27T18:07:41.454Z,15.19
2023-04-27T18:10:29.783Z,15.18
2023-04-27T18:13:18.123Z,15.27
2023-04-27T18:16:06.910Z,15.23
2023-04-27T18:18:55.351Z,15.31
2023-04-27T18:21:45.057Z,15.34
2023-04-27T18:24:33.427Z,14.95
2023-04-27T18:27:21.823Z,14.60
2023-04-27T18:30:10.487Z,14.60
2023-04-27T18:32:59.083Z,14.67
2023-04-27T18:35:47.520Z,14.82
2023-04-27T18:38:37.312Z,14.69
2023-04-27T18:41:25.976Z,14.79
2023-04-27T18:44:15.712Z,14.72
2023-04-27T18:47:04.637Z,14.75
2023-04-27T18:49:52.960Z,14.58
2023-04-27T18:52:41.381Z,14.39
2023-04-27T18:55:31.599Z,14.24
2023-04-27T18:58:19.970Z,14.26
2023-04-27T19:01:08.477Z,14.14
2023-04-27T19:03:57.972Z,14.28
2023-04-27T19:06:47.646Z,14.23
2023-04-27T19:09:36.111Z,14.25
2023-04-27T19:12:26.070Z,14.23
2023-04-27T19:15:15.473Z,14.02
2023-04-27T19:18:10.650Z,13.94
2023-04-27T19:20:59.958Z,13.83
2023-04-27T19:23:48.296Z,13.65
2023-04-27T19:26:36.793Z,13.60
2023-04-27T19:29:26.803Z,13.48
2023-04-27T19:32:15.189Z,13.50
2023-04-27T19:35:03.719Z,13.55
2023-04-27T19:37:52.162Z,13.57
2023-04-27T19:40:40.638Z,13.58
2023-04-27T19:43:29.131Z,13.56
2023-04-27T19:46:18.989Z,13.49
2023-04-27T19:49:07.578Z,13.48
2023-04-27T19:51:55.993Z,13.43
2023-04-27T19:54:44.342Z,13.43
2023-04-27T19:57:32.802Z,13.42
2023-04-27T20:00:21.662Z,13.36
2023-04-27T20:03:12.708Z,13.32
2023-04-27T20:06:02.060Z,13.29
2023-04-27T20:08:51.019Z,13.23
2023-04-27T20:11:39.575Z,13.16
2023-04-27T20:14:30.060Z,13.10
2023-04-27T20:17:18.530Z,13.04
2023-04-27T20:20:11.464Z,12.98
2023-04-27T20:23:00.149Z,12.90
2023-04-27T20:25:48.610Z,12.83
2023-04-27T20:28:37.001Z,12.72
2023-04-27T20:31:26.021Z,12.62
2023-04-27T20:34:14.774Z,12.53
2023-04-27T20:37:05.377Z,12.49
2023-04-27T20:39:53.926Z,12.40
2023-04-27T20:42:42.509Z,12.32
2023-04-27T20:45:31.164Z,12.21
2023-04-27T20:48:19.705Z,12.16
2023-04-27T20:51:08.128Z,12.07
2023-04-27T20:53:58.326Z,12.03
2023-04-27T20:56:46.922Z,12.01
2023-04-27T20:59:35.504Z,11.95
2023-04-27T21:02:24.039Z,11.93
2023-04-27T21:05:12.480Z,11.75
2023-04-27T21:08:00.954Z,11.78
2023-04-27T21:10:50.756Z,11.75
2023-04-27T21:13:39.403Z,11.70
2023-04-27T21:16:27.862Z,11.63
2023-04-27T21:19:17.000Z,11.60
2023-04-27T21:22:05.542Z,11.54
2023-04-27T21:24:53.914Z,11.46
2023-04-27T21:27:43.772Z,11.44
2023-04-27T21:30:32.171Z,11.40
2023-04-27T21:33:20.759Z,11.35
2023-04-27T21:36:09.445Z,11.33
2023-04-27T21:38:57.886Z,11.29
2023-04-27T21:41:46.409Z,11.24
2023-04-27T21:44:36.248Z,11.23
2023-04-27T21:47:24.592Z,11.14
2023-04-27T21:50:13.202Z,11.08
2023-04-27T21:53:01.531Z,10.96
2023-04-27T21:55:51.238Z,10.91
2023-04-27T21:58:39.860Z,10.91
2023-04-27T22:01:29.641Z,10.87
2023-04-27T22:04:18.184Z,10.81
2023-04-27T22:07:07.993Z,10.84
2023-04-27T22:09:56.412Z,10.82
2023-04-27T22:12:46.862Z,10.81
2023-04-27T22:15:35.401Z,10.79
2023-04-27T22:18:25.158Z,10.85
2023-04-27T22:21:13.707Z,10.84
2023-04-27T22:24:02.099Z,10.83
2023-04-27T22:26:50.932Z,10.80
2023-04-27T22:29:39.551Z,10.70
2023-04-27T22:32:28.124Z,10.68
2023-04-27T22:35:26.243Z,10.64
2023-04-27T22:39:16.147Z,10.52
2023-04-27T22:42:04.644Z,10.42
2023-04-27T22:44:53.010Z,10.42
2023-04-27T22:47:41.612Z,10.42
2023-04-27T22:50:31.657Z,10.41
2023-04-27T22:53:20.018Z,10.37
2023-04-27T22:56:08.709Z,10.29
2023-04-27T22:58:57.117Z,10.29
2023-04-27T23:01:46.134Z,10.24
2023-04-27T23:04:34.821Z,10.20
2023-04-27T23:07:24.901Z,10.18
2023-04-27T23:10:15.249Z,10.11
2023-04-27T23:13:04.194Z,10.05
2023-04-27T23:15:54.465Z,9.91
2023-04-27T23:18:42.944Z,9.95
2023-04-27T23:21:31.872Z,9.84
2023-04-27T23:24:21.608Z,9.87
2023-04-27T23:27:09.949Z,9.90
2023-04-27T23:29:58.400Z,9.82
2023-04-27T23:32:46.977Z,9.80
2023-04-27T23:35:35.384Z,9.79
2023-04-27T23:38:23.854Z,9.75
2023-04-27T23:41:13.720Z,9.65
2023-04-27T23:44:02.084Z,9.67
2023-04-27T23:46:50.444Z,9.68
2023-04-27T23:49:38.818Z,9.57
2023-04-27T23:52:27.301Z,9.58
2023-04-27T23:55:16.105Z,9.58
2023-04-27T23:58:05.841Z,9.61
